Portada
METAR-TAF:

METAR-TAF

Aeroports :

L'Havana, Cuba

latitud: 22-59N, longitud: 082-24W, altitud: 59 m

Observació

L'informe es va fer fa 46 minuts, a les 18:55 UTC
Vent 8 kt del Sud, variant entre Sud/Sud-Est i Sud-Oest
Temperatura 33°C
Humitat 44%
Pressió 1017 hPa
Visibilitat: 9000 m
Núvols disperses a una alçada de 3000 ft

METAR: MUHA 291855Z 19008KT 160V230 9000 SCT030 33/19 Q1017

Hora: 15:41 (19:41 UTC)

Pronòstic

L'informe es va fer fa 2 hores i 41 minuts, a les 17:00 UTC
Pronòstic vàlid del 29 a les 18 UTC al 30 a les 18 UTC
Vent 10 kt del Sud/Sud-Est
Visibilitat: 9000 m
Núvols disperses a una alçada de 3000 ft
Evolucionant progressivament
l' 30 a les 03 UTC al 30 a les 05 UTC
Vent 6 kt del Est
Escasses núvols a una alçada de 3000 ft
Evolucionant progressivament
l' 30 a les 15 UTC al 30 a les 17 UTC
Vent 8 kt del Sud/Sud-Est

TAF: MUHA 291700Z 2918/3018 15010KT 9000 SCT030 BECMG 3003/3005 09006KT FEW030 BECMG 3015/3017 15008KT

Observacions i pronòstics meteorològics de més de 4000 aeroports (METAR i TAF).

Les estacions disponibles són els punts grocs i vermells al mapa.

Posi el ratolí al punt desitjat per veure el nom de l'estació.

Feu clic per veure les observacions i els pronòstics meteorològics.

Per canviar el mapa: feu clic els botons verds amb una creu de color negre per apropar; al botó verd amb un guió per allunyar la imatge; o en les fletxes verdes per a mapes adjacents.


METAR-TAF: